Weather observations for the past three days for
Oskaloosa, Oskaloosa Municipal Airport
Imperial (Metric)
Date Time (cdt) Wind (mph) Vis. (mi.) Weather Sky Cond. Temperature (ºF) Relative Humidity Wind Chill (°F) Heat Index (°F) Pressure Precipitation (in)
Air Dwpt 6 hour altimeter (in) sea level (mb) 1 hr 3 hr 6 hr
Max. Min.
31 18:35 SW 5 5.00 Fair CLR 90 78.8 70% 106 29.92 0.0
31 18:15 W 5 5.00 Fair CLR 90.9 78.1 66% 106 29.92 0.0
31 17:55 SW 7 7.00 Fair CLR 91.8 77.7 64% 107 29.92 0.0
31 17:35 SW 7 5.00 Fair CLR 91.8 76.6 61% 105 29.91 0.0
31 17:15 SW 8 5.00 Fair CLR 92.7 77.2 61% 107 29.92 0.0
31 16:55 SW 7 7.00 Fair CLR 92.7 76.5 59% 106 29.92 0.0
31 16:35 SW 8 7.00 Fair CLR 93 75.7 57% 105 29.91 0.0
31 16:15 SW 8 7.00 Fair CLR 92.8 75.7 58% 105 29.91 0.0
31 15:35 SW 9 7.00 Fair CLR 92.5 76.1 59% 105 29.91 0.0
31 15:15 SW 6 7.00 Fair CLR 92.7 75.7 58% 105 29.92 0.0
31 14:55 SW 7 7.00 Fair CLR 92.7 75.4 57% 104 29.92 0.0
31 14:35 SW 7 4.00 Fair CLR 92.1 75.2 58% 104 29.93 0.0
31 14:15 SW 6 5.00 Fair CLR 91.9 74.7 57% 103 29.92 0.0
31 13:55 SW 6 4.00 Fair CLR 90.5 73.2 57% 99 29.92 0.0
31 13:35 SW 6 5.00 Fair CLR 90.5 73.8 58% 100 29.92 0.0
31 13:15 SW 6 3.00 Fair CLR 89.1 72.9 59% 97 29.92 0.0
31 12:55 SW 6 4.00 Fair CLR 88.7 72.9 90.5 76.1 60% 96 29.92 0.0
31 12:35 SW 6 5.00 Fair CLR 90 72.5 57% 98 29.92 0.0
31 12:15 W 8 4.00 Fair CLR 89.4 72.1 57% 97 29.93 0.0
31 11:55 W 8 5.00 Fair CLR 89.1 71.4 56% 96 29.92 0.0
31 11:35 W 10 10.00 Fair CLR 88.2 70.7 56% 94 29.93 0.0
31 11:15 W 15 G 20 7.00 Fair CLR 87.3 70 57% 92 29.93 0.0
31 10:55 SW 14 G 18 7.00 Fair CLR 86.5 70.3 59% 92 29.93 0.0
31 10:35 SW 14 G 20 7.00 Fair CLR 85.5 70 60% 90 29.92 0.0
31 10:15 W 13 7.00 Fair CLR 84.7 69.8 61% 89 29.93 0.0
31 09:55 SW 10 7.00 Fair CLR 83.8 69.1 61% 88 29.92 0.0
31 09:35 SW 12 G 17 7.00 Fair CLR 82.6 69.3 64% 86 29.91 0.0
31 09:15 SW 15 G 21 7.00 Fair CLR 81.9 67.5 62% 85 29.91 0.0
31 08:55 SW 15 G 22 7.00 Fair CLR 82.2 67.5 61% 85 29.9 0.0
31 08:35 SW 13 G 20 5.00 Fair CLR 81.3 67.5 63% 84 29.9 0.0
31 08:15 SW 12 G 20 5.00 Fair CLR 80.2 66.9 64% 83 29.9 0.0
31 07:55 SW 13 G 17 5.00 Fair CLR 78.8 66.6 66% 81 29.9 0.0
31 07:35 SW 10 7.00 Fair CLR 78.3 66.2 67% 80 29.89 0.0
31 07:15 SW 13 7.00 Fair CLR 77 66.2 69% 79 29.88 0.0
31 06:55 SW 10 5.00 Fair CLR 76.1 66.4 77.4 73.8 72% 78 29.88 0.0
31 06:35 S 10 7.00 Fair CLR 75.6 66.4 73% 77 29.88 0.0
31 06:15 S 9 7.00 Fair CLR 75.2 66.6 75% 76 29.88 0.0
31 05:55 S 9 7.00 Fair CLR 75.2 66.7 75% 76 29.88 0.0
31 05:35 S 8 7.00 Fair CLR 74.8 67.1 77% 29.88 0.0
31 05:15 SW 8 7.00 Fair CLR 75.2 67.3 77% 76 29.88 0.0
31 04:55 S 8 7.00 Fair CLR 75 67.6 78% 76 29.88 0.0
31 04:35 S 8 7.00 Fair CLR 74.5 68.2 81% 29.88 0.0
31 04:15 S 8 7.00 Fair CLR 73.8 68.4 83% 29.88 0.0
31 03:55 S 7 7.00 Fair CLR 73.8 68.9 85% 29.88 0.0
31 03:35 S 6 7.00 Fair CLR 74.3 68.9 83% 29.88 0.0
31 03:15 S 7 7.00 Fair CLR 74.7 69.3 83% 29.88 0.0
31 02:55 S 7 7.00 Fair CLR 74.7 69.3 83% 29.88 0.0
31 02:35 S 6 7.00 Fair CLR 75.2 69.3 82% 76 29.88 0.0
31 02:15 S 8 10.00 Fair CLR 75.6 69.8 82% 76 29.88 0.0
31 01:55 S 8 7.00 Fair CLR 76.1 69.8 81% 77 29.88 0.0
31 01:35 S 8 7.00 Fair CLR 76.8 69.8 79% 78 29.89 0.0
31 01:15 S 8 7.00 Fair CLR 77.2 69.8 78% 79 29.89 0.0
31 00:55 S 9 7.00 Fair CLR 77.4 69.8 83.5 76.6 78% 79 29.89 0.0
31 00:35 S 9 7.00 Fair CLR 77.7 70 77% 80 29.89 0.0
31 00:15 S 9 7.00 Fair CLR 77.9 70.3 78% 80 29.88 0.0
30 23:55 S 9 7.00 Fair CLR 78.8 70.3 75% 81 29.88 0.0
30 23:35 S 9 7.00 Fair CLR 79.7 70.3 73% 83 29.89 0.0
30 23:15 S 10 7.00 Fair CLR 79.3 70.7 75% 82 29.88 0.0
30 22:55 S 9 7.00 Fair CLR 77.9 71.4 81% 80 29.89 0.0
30 22:35 SE 7 7.00 Fair CLR 76.6 72.1 86% 78 29.89 0.0
30 22:15 SE 6 7.00 Fair CLR 77.4 72.7 86% 79 29.89 0.0
30 21:55 SE 8 7.00 Fair CLR 78.6 73.2 84% 82 29.89 0.0
30 21:35 SE 10 7.00 Fair CLR 78.8 73.6 84% 82 29.89 0.0
30 21:15 SE 9 7.00 Fair CLR 78.8 74.3 86% 82 29.89 0.0
30 20:55 SE 8 7.00 Fair CLR 78.3 74.5 88% 81 29.89 0.0
30 20:35 SE 7 7.00 Fair CLR 78.4 74.8 89% 82 29.89 0.0
30 20:15 SE 7 7.00 Fair CLR 79.2 75.2 88% 83 29.88 0.0
30 19:55 SE 7 7.00 Fair CLR 79.9 75.2 86% 85 29.87 0.0
30 19:35 SE 6 7.00 Fair CLR 81.5 75.6 82% 88 29.87 0.0
30 19:15 SE 8 7.00 Fair CLR 82.6 75.6 79% 90 29.86 0.0
30 18:55 SE 10 7.00 Fair CLR 83.5 75.6 87.1 74.8 77% 92 29.87 0.0
30 18:35 SE 8 7.00 Fair CLR 84 75.9 77% 93 29.88 0.0
30 18:15 SE 8 7.00 Fair CLR 86.2 75.7 71% 96 29.87 0.0
30 17:55 SE 8 10.00 Fair CLR 86.7 75.7 70% 97 29.87 0.0
30 17:35 SE 8 10.00 Fair CLR 86.9 76.3 71% 98 29.87 0.0
30 17:15 SE 8 G 16 10.00 Fair CLR 86.9 75 68% 96 29.87 0.0
30 16:55 SE 10 G 16 10.00 Fair CLR 86.7 74.1 66% 95 29.86 0.0
30 16:35 SE 12 10.00 Fair CLR 86.5 73.9 66% 95 29.87 0.0
30 16:15 SE 13 G 18 10.00 Fair CLR 84.7 73.8 70% 92 29.87 0.0
30 15:55 SE 13 10.00 Fair CLR 85.1 73.2 68% 92 29.88 0.0
30 15:35 SE 9 10.00 Fair CLR 83.3 73.6 73% 90 29.9 0.0
30 15:15 SE 8 10.00 Fair CLR 83.5 73 71% 90 29.9 0.0
30 14:55 SE 9 10.00 Fair CLR 81.9 72.7 74% 87 29.91 0.0
30 14:35 SE 8 10.00 Fair CLR 79.9 71.6 76% 83 29.92 0.0
30 14:15 SE 9 10.00 Fair CLR 78.6 71.4 79% 81 29.92 0.0
30 13:55 SE 10 10.00 Fair CLR 76.8 70.3 80% 78 29.92 0.0
30 13:35 SE 8 10.00 Fair CLR 75.9 70.3 83% 77 29.92 0.0
30 13:15 S 8 10.00 Fair CLR 75.2 70.7 86% 75 29.92 0.0
30 12:50 SE 5 10.00 Fair CLR 74.8 71.2 80.6 72.3 89% 29.92 0.0 0.01 0.02
30 12:35 SE 5 10.00 Fair CLR 74.5 70.9 89% 29.92 0.0 0.01
30 12:15 W 3 10.00 Partly Cloudy SCT037 SCT050 SCT065 73.8 70 88% 29.94 0.0
30 11:55 NW 5 7.00 Partly Cloudy SCT037 SCT050 SCT065 73.8 69.6 87% 29.93 0.0 0.01
30 11:35 NW 3 10.00 Fair CLR 73.2 69.6 89% 29.93 0.0
30 11:15 SW 3 10.00 Partly Cloudy SCT070 SCT085 SCT100 73 68.2 85% 29.91 0.0
30 10:55 W 6 7.00 Partly Cloudy SCT070 SCT085 SCT100 73.9 67.3 80% 29.92 0.0
30 10:35 SW 13 10.00 Fair CLR 76.3 66.4 72% 78 29.89 0.0
30 10:15 SW 14 10.00 Fair CLR 77.7 66.4 68% 80 29.89 0.0
30 09:55 SW 14 G 17 10.00 Fair CLR 78.6 66.6 67% 81 29.89 0.0
30 09:35 SW 14 G 18 10.00 Fair CLR 79.9 66.6 64% 82 29.9 0.0
30 09:15 SW 17 G 26 10.00 Fair CLR 79.9 66.2 63% 82 29.9 0.0
30 08:55 SW 15 G 23 10.00 Fair CLR 79.9 66 63% 82 29.89 0.0
30 08:35 S 7 10.00 Fair CLR 77 67.5 73% 79 29.9 0.0
30 08:15 SW 5 10.00 Fair CLR 75.6 66.7 74% 77 29.91 0.0
30 07:55 S 8 10.00 Fair CLR 74.1 66.2 76% 29.89 0.0
30 07:35 S 6 10.00 Fair CLR 72.9 66.2 80% 29.89 0.0
30 07:15 S 6 10.00 Fair CLR 72.9 65.3 77% 29.89 0.0
30 06:55 S 7 10.00 Fair CLR 73.2 64.8 75 72.9 75% 29.89 0.0
30 06:35 S 7 10.00 Fair CLR 74.3 64.8 72% 29.89 0.0
30 06:15 S 9 10.00 Fair CLR 74.7 64.8 71% 29.89 0.0
30 05:55 S 9 10.00 Fair CLR 74.7 64.8 71% 29.89 0.0
30 05:35 S 8 10.00 Fair CLR 73.8 64.9 74% 29.89 0.0
30 05:15 S 9 10.00 Fair CLR 73.6 65.1 75% 29.89 0.0
30 04:55 S 9 10.00 Fair CLR 73.8 64.9 74% 29.9 0.0
30 04:35 S 10 10.00 Fair CLR 73.4 65.3 76% 29.89 0.0
30 04:15 S 9 10.00 Fair CLR 73.8 65.3 75% 29.9 0.0
30 03:55 S 9 10.00 Fair CLR 73.9 65.3 75% 29.9 0.0
30 03:35 S 10 10.00 Fair CLR 73.4 65.3 76% 29.89 0.0
30 03:15 S 9 10.00 Fair CLR 73 65.8 78% 29.89 0.0
30 02:55 S 9 10.00 Fair CLR 73.4 66 78% 29.89 0.0
30 02:35 S 10 10.00 Fair CLR 73.6 66.2 78% 29.89 0.0
30 02:15 S 10 10.00 Fair CLR 73.8 66.2 77% 29.9 0.0
30 01:55 S 10 10.00 Fair CLR 73.8 66.2 77% 29.9 0.0
30 01:35 S 9 10.00 Fair CLR 73.6 66.4 78% 29.9 0.0
30 01:15 S 10 10.00 Fair CLR 73.9 66.6 78% 29.91 0.0
30 00:55 S 12 10.00 Fair CLR 75.2 66.7 79.9 74.8 75% 76 29.91 0.0
30 00:35 S 10 10.00 Fair CLR 74.8 67.1 77% 29.91 0.0
30 00:10 S 10 10.00 Fair CLR 75 67.3 77% 76 29.91 0.0
29 23:55 S 10 10.00 Fair CLR 75.4 67.5 77% 76 29.91 0.0
29 23:35 S 10 10.00 Fair CLR 75.7 67.8 77% 77 29.91 0.0
29 23:15 S 12 10.00 Fair CLR 76.1 68 76% 77 29.91 0.0
29 22:55 S 10 10.00 Fair CLR 76.3 68.4 77% 78 29.91 0.0
29 22:35 S 12 G 18 10.00 Fair CLR 77 68.5 75% 79 29.91 0.0
29 22:15 S 12 10.00 Fair CLR 77 68.5 75% 79 29.91 0.0
29 21:55 S 13 G 18 10.00 Fair CLR 77.5 68.5 74% 79 29.91 0.0
29 21:35 S 15 10.00 Fair CLR 77.9 68.4 73% 80 29.9 0.0
29 21:15 S 15 10.00 Fair CLR 78.4 68.5 72% 81 29.9 0.0
29 20:55 S 16 10.00 Fair CLR 79 68.9 71% 81 29.89 0.0
29 20:35 S 15 G 23 10.00 Fair CLR 79.2 69.3 72% 82 29.89 0.0
29 20:20 S 13 G 18 10.00 Fair CLR 79.2 69.8 73% 82 29.89 0.0
29 19:55 S 13 G 17 10.00 Fair CLR 79.2 69.8 73% 82 29.89 0.0
29 19:35 S 13 G 17 10.00 Fair CLR 79.7 70.3 73% 83 29.89 0.0
29 19:15 S 10 10.00 Fair CLR 79.7 71.4 76% 83 29.89 0.0
29 18:55 S 10 10.00 Fair CLR 79.9 71.8 83.5 70.2 76% 84 29.89 0.0
29 18:35 S 12 10.00 Fair CLR 80.4 72 76% 84 29.9 0.0
29 17:55 S 16 G 21 10.00 Fair CLR 83.1 71.4 68% 88 29.91 0.0
29 17:35 S 16 G 20 10.00 Fair CLR 83.3 71.1 67% 88 29.91 0.0
29 17:15 S 16 G 21 10.00 Fair CLR 83.3 72.1 69% 89 29.91 0.0
29 16:55 S 16 10.00 Fair CLR 82.6 71.4 69% 87 29.91 0.0
29 16:35 S 18 G 22 10.00 Fair CLR 82 71.2 70% 86 29.92 0.0
29 16:15 S 16 G 21 10.00 Fair CLR 81.5 71.8 72% 86 29.92 0.0
29 15:55 SE 16 10.00 Fair CLR 78.8 70.9 77% 82 29.93 0.0
29 15:35 SE 16 G 21 10.00 Fair CLR 76.3 70 81% 77 29.95 0.0
29 15:15 SE 16 10.00 Fair CLR 74.5 68.9 83% 29.97 0.0
29 14:55 SE 14 10.00 Fair CLR 73.8 68.5 84% 29.99 0.0
29 14:35 SE 14 10.00 Fair CLR 72.5 67.8 85% 30 0.0
29 14:15 E 12 10.00 Partly Cloudy SCT055 SCT100 72.1 67.5 85% 30.02 0.0
29 13:55 E 10 10.00 Fair CLR 73 67.1 82% 30.03 0.0
29 13:35 SE 8 10.00 Fair CLR 72.5 67.1 83% 30.02 0.0
29 13:15 SE 10 10.00 Fair CLR 71.2 67.1 87% 30.02 0.0
29 12:35 SE 10 7.00 Fair CLR 68.9 67.3 95% 30.02 0.0 0.01
29 12:15 S 6 5.00 Partly Cloudy SCT044 SCT050 69.1 67.1 93% 30.06 0.0 0.01
29 11:55 SE 3 7.00 Fair CLR 69.1 66.2 91% 30.07 0.0
29 11:35 E 3 7.00 Fair CLR 68.9 65.8 90% 30.09 0.0
29 11:15 NE 5 7.00 Fair CLR 68.9 65.3 88% 30.1 0.0
29 10:55 NE 6 10.00 Fair CLR 69.1 64.2 85% 30.11 0.0
29 10:35 Calm 10.00 Fair CLR 70 63.9 81% 30.09 0.0
29 10:15 SE 7 10.00 Fair CLR 69.1 63.7 83% 30.06 0.0
29 09:55 S 9 10.00 Fair CLR 68.9 63.1 82% 30.06 0.0
29 09:35 S 10 10.00 Fair CLR 68.9 63 81% 30.06 0.0
29 09:15 S 9 10.00 Fair CLR 68.5 62.8 82% 30.06 0.0
29 08:55 S 9 10.00 Fair CLR 67.8 63 85% 30.06 0.0
29 08:35 S 9 10.00 Fair CLR 67.3 62.8 86% 30.07 0.0
29 08:15 S 9 10.00 Fair CLR 66.9 63 87% 30.07 0.0
29 07:55 S 7 10.00 Fair CLR 66.6 62.8 88% 30.08 0.0
29 07:35 S 7 10.00 Fair CLR 66.2 62.8 89% 30.07 0.0
29 07:15 S 7 10.00 Fair CLR 65.5 62.6 90% 30.08 0.0
29 06:55 S 6 10.00 Fair CLR 64.6 62.2 66.2 63 92% 30.07 0.0
29 06:35 S 6 10.00 Fair CLR 64.4 61.9 92% 30.06 0.0
29 06:15 S 7 10.00 Fair CLR 63.9 62.1 94% 30.06 0.0
29 05:55 S 6 10.00 Fair CLR 63 61.7 96% 30.07 0.0
29 05:35 S 5 10.00 Fair CLR 63.5 61.7 94% 30.07 0.0
29 05:15 S 6 10.00 Fair CLR 64.4 61.7 91% 30.08 0.0
29 04:55 S 8 10.00 Fair CLR 64.6 62.1 92% 30.07 0.0
29 04:35 S 7 10.00 Fair CLR 64.2 61.9 92% 30.07 0.0
29 04:15 S 8 10.00 Fair CLR 64.6 62.1 92% 30.07 0.0
29 03:55 S 7 10.00 Fair CLR 64.8 62.2 92% 30.09 0.0
29 03:35 SE 5 10.00 Fair CLR 63.5 61.5 93% 30.09 0.0
29 03:15 S 6 10.00 Fair CLR 63.9 61.7 93% 30.09 0.0
29 02:55 S 3 10.00 Fair CLR 64.8 62.1 91% 30.1 0.0
29 02:35 S 3 10.00 Fair CLR 64.6 62.8 94% 30.09 0.0
29 02:15 S 5 10.00 Fair CLR 64.6 62.8 94% 30.09 0.0
29 01:55 S 6 10.00 Fair CLR 65.3 63.1 93% 30.09 0.0
29 01:35 S 7 10.00 Fair CLR 65.3 63.5 94% 30.09 0.0
29 01:15 S 6 10.00 Fair CLR 66.2 63.5 91% 30.1 0.0
29 00:55 S 7 10.00 Fair CLR 66.2 63.9 79.9 66.2 92% 30.1 0.0
29 00:35 S 6 10.00 Fair CLR 66.4 64.4 93% 30.1 0.0
29 00:15 SE 7 10.00 Fair CLR 67.3 64.4 91% 30.09 0.0
28 23:55 SE 6 10.00 Fair CLR 68 65.3 91% 30.09 0.0
28 23:35 SE 5 10.00 Fair CLR 66.7 65.1 95% 30.1 0.0
28 23:15 S 6 10.00 Fair CLR 67.8 65.5 92% 30.1 0.0
28 22:55 S 7 10.00 Fair CLR 68.9 65.8 90% 30.1 0.0
28 22:35 SE 7 10.00 Fair CLR 69.1 66.4 91% 30.1 0.0
28 22:15 SE 6 10.00 Fair CLR 70.2 66.9 90% 30.1 0.0
28 21:55 SE 6 10.00 Fair CLR 70.3 67.1 90% 30.1 0.0
28 21:35 SE 7 10.00 Fair CLR 70.7 67.1 88% 30.1 0.0
28 21:15 SE 6 10.00 Fair CLR 71.1 67.1 87% 30.1 0.0
28 20:55 SE 6 10.00 Fair CLR 71.4 66.6 85% 30.1 0.0
28 20:35 SE 5 10.00 Fair CLR 73.4 67.3 81% 30.09 0.0
28 20:15 SE 6 10.00 Fair CLR 74.8 67.5 78% 30.09 0.0
28 19:55 SE 5 10.00 Fair CLR 75 68.5 80% 76 30.09 0.0
28 19:35 SE 5 10.00 Fair CLR 75.9 69.3 80% 77 30.09 0.0
28 19:15 SE 5 10.00 Fair CLR 78.6 69.6 74% 81 30.09 0.0
Date Time (cdt) Wind (mph) Vis. (mi.) Weather Sky Cond. Air Dwpt Max. Min. Relative Humidity Wind Chill (°F) Heat Index (°F) altimeter (in) sea level (mb) 1 hr 3 hr 6 hr
6 hour
Temperature (ºF) Pressure Precipitation (in)